createdAt,value
2018-07-17T00:01:03.250Z,21.40
2018-07-17T00:03:32.355Z,21.40
2018-07-17T00:06:01.520Z,21.60
2018-07-17T00:08:30.650Z,21.60
2018-07-17T00:10:59.809Z,21.70
2018-07-17T00:13:28.941Z,21.80
2018-07-17T00:15:58.105Z,21.80
2018-07-17T00:18:27.226Z,21.80
2018-07-17T00:20:56.368Z,21.90
2018-07-17T00:23:25.490Z,21.90
2018-07-17T00:25:54.629Z,21.80
2018-07-17T00:28:23.721Z,21.80
2018-07-17T00:30:52.835Z,21.80
2018-07-17T00:33:22.011Z,21.70
2018-07-17T00:35:51.138Z,21.60
2018-07-17T00:38:20.409Z,21.50
2018-07-17T00:40:49.550Z,21.40
2018-07-17T00:43:18.728Z,21.50
2018-07-17T00:45:47.834Z,21.50
2018-07-17T00:48:17.109Z,21.50
2018-07-17T00:50:46.237Z,21.60
2018-07-17T00:53:15.368Z,21.20
2018-07-17T00:55:44.529Z,21.10
2018-07-17T00:58:13.661Z,21.10
2018-07-17T01:00:45.832Z,21.30
2018-07-17T01:03:20.319Z,21.30
2018-07-17T01:05:54.782Z,21.30
2018-07-17T01:08:29.172Z,21.20
2018-07-17T01:11:03.590Z,21.20
2018-07-17T01:13:41.719Z,21.10
2018-07-17T01:16:10.884Z,21.10
2018-07-17T01:18:40.008Z,21.10
2018-07-17T01:21:09.134Z,21.20
2018-07-17T01:23:38.310Z,21.20
2018-07-17T01:26:07.442Z,21.10
2018-07-17T01:28:36.588Z,21.10
2018-07-17T01:31:05.743Z,21.00
2018-07-17T01:33:34.889Z,21.00
2018-07-17T01:36:04.089Z,21.00
2018-07-17T01:38:33.289Z,21.00
2018-07-17T01:41:02.333Z,20.90
2018-07-17T01:46:00.181Z,20.80
2018-07-17T01:48:29.356Z,20.80
2018-07-17T01:50:58.490Z,20.70
2018-07-17T01:53:27.629Z,20.80
2018-07-17T01:55:56.803Z,20.70
2018-07-17T01:58:25.964Z,20.80
2018-07-17T02:00:55.153Z,20.80
2018-07-17T02:03:24.265Z,20.90
2018-07-17T02:05:53.426Z,20.90
2018-07-17T02:08:22.550Z,20.90
2018-07-17T02:10:51.705Z,20.90
2018-07-17T02:13:20.826Z,20.70
2018-07-17T02:15:49.993Z,20.60
2018-07-17T02:18:19.221Z,20.60
2018-07-17T02:20:48.329Z,20.70
2018-07-17T02:23:17.441Z,20.70
2018-07-17T02:25:46.585Z,20.70
2018-07-17T02:28:15.797Z,20.70
2018-07-17T02:30:44.915Z,20.70
2018-07-17T02:33:14.089Z,20.70
2018-07-17T02:35:43.228Z,20.60
2018-07-17T02:38:12.329Z,20.50
2018-07-17T02:40:41.438Z,20.60
2018-07-17T02:43:10.557Z,20.60
2018-07-17T02:45:39.654Z,20.60
2018-07-17T02:48:08.781Z,20.60
2018-07-17T02:50:37.896Z,20.60
2018-07-17T02:53:07.061Z,20.60
2018-07-17T02:55:36.195Z,20.50
2018-07-17T02:58:05.373Z,20.50
2018-07-17T03:00:34.542Z,20.30
2018-07-17T03:05:32.413Z,20.40
2018-07-17T03:08:01.552Z,20.50
2018-07-17T03:10:30.673Z,20.50
2018-07-17T03:12:59.854Z,20.40
2018-07-17T03:15:28.996Z,20.30
2018-07-17T03:17:58.199Z,20.10
2018-07-17T03:20:27.326Z,20.10
2018-07-17T03:22:56.507Z,19.90
2018-07-17T03:25:25.641Z,19.90
2018-07-17T03:27:54.790Z,20.00
2018-07-17T03:30:25.027Z,20.10
2018-07-17T03:32:54.217Z,20.20
2018-07-17T03:35:23.354Z,20.00
2018-07-17T03:37:52.550Z,20.00
2018-07-17T03:40:21.805Z,20.00
2018-07-17T03:42:50.961Z,20.10
2018-07-17T03:45:20.621Z,20.10
2018-07-17T03:47:49.799Z,20.00
2018-07-17T03:50:18.987Z,20.00
2018-07-17T03:52:48.091Z,20.00
2018-07-17T03:55:17.232Z,19.90
2018-07-17T03:57:46.392Z,19.90
2018-07-17T04:02:44.289Z,20.10
2018-07-17T04:05:13.424Z,20.00
2018-07-17T04:07:42.579Z,19.90
2018-07-17T04:10:11.715Z,20.10
2018-07-17T04:12:40.856Z,20.10
2018-07-17T04:15:09.981Z,20.10
2018-07-17T04:17:39.152Z,19.80
2018-07-17T04:20:08.288Z,19.70
2018-07-17T04:22:37.397Z,19.70
2018-07-17T04:25:06.748Z,19.70
2018-07-17T04:27:35.829Z,19.60
2018-07-17T04:30:04.936Z,19.70
2018-07-17T04:32:34.036Z,19.70
2018-07-17T04:35:03.166Z,19.80
2018-07-17T04:37:32.427Z,19.90
2018-07-17T04:40:01.566Z,20.00
2018-07-17T04:42:30.728Z,20.00
2018-07-17T04:44:59.841Z,20.00
2018-07-17T04:47:29.029Z,20.10
2018-07-17T04:49:58.174Z,20.10
2018-07-17T04:52:27.341Z,20.10
2018-07-17T04:54:56.462Z,20.00
2018-07-17T04:57:25.658Z,20.10
2018-07-17T04:59:54.788Z,20.20
2018-07-17T05:02:23.959Z,20.20
2018-07-17T05:04:53.135Z,20.30
2018-07-17T05:07:22.312Z,20.30
2018-07-17T05:09:51.458Z,20.20
2018-07-17T05:12:20.649Z,20.30
2018-07-17T05:14:49.847Z,20.40
2018-07-17T05:17:19.048Z,20.40
2018-07-17T05:19:48.202Z,20.40
2018-07-17T05:22:17.376Z,20.30
2018-07-17T05:24:46.452Z,20.40
2018-07-17T05:27:15.700Z,20.40
2018-07-17T05:29:44.837Z,20.40
2018-07-17T05:32:13.974Z,20.50
2018-07-17T05:34:43.125Z,20.50
2018-07-17T05:37:12.279Z,20.50
2018-07-17T05:39:41.422Z,20.60
2018-07-17T05:42:10.746Z,20.70
2018-07-17T05:44:39.887Z,20.70
2018-07-17T05:47:09.022Z,20.70
2018-07-17T05:49:38.166Z,20.70
2018-07-17T05:52:07.441Z,20.70
2018-07-17T05:54:36.621Z,20.90
2018-07-17T05:57:05.850Z,21.00
2018-07-17T05:59:34.993Z,21.10
2018-07-17T06:02:04.137Z,21.10
2018-07-17T06:04:33.301Z,21.20
2018-07-17T06:07:02.446Z,21.20
2018-07-17T06:09:31.735Z,21.20
2018-07-17T06:12:00.889Z,21.20
2018-07-17T06:14:30.051Z,21.20
2018-07-17T06:16:59.208Z,21.20
2018-07-17T06:19:28.487Z,21.20
2018-07-17T06:21:57.643Z,21.20
2018-07-17T06:24:26.755Z,21.40
2018-07-17T06:26:55.926Z,21.70
2018-07-17T06:29:25.124Z,22.00
2018-07-17T06:31:54.327Z,22.00
2018-07-17T06:34:23.454Z,22.20
2018-07-17T06:36:52.602Z,22.30
2018-07-17T06:39:21.801Z,22.50
2018-07-17T06:41:50.934Z,22.50
2018-07-17T06:44:20.070Z,22.90
2018-07-17T06:46:49.247Z,23.20
2018-07-17T06:49:18.389Z,23.40
2018-07-17T06:51:47.560Z,23.60
2018-07-17T06:54:16.721Z,24.00
2018-07-17T06:56:45.925Z,24.30
2018-07-17T06:59:15.060Z,24.70
2018-07-17T07:01:44.270Z,25.20
2018-07-17T07:04:13.443Z,25.60
2018-07-17T07:06:42.670Z,26.00
2018-07-17T07:09:11.774Z,26.70
2018-07-17T07:11:40.941Z,26.80
2018-07-17T07:14:10.095Z,27.10
2018-07-17T07:16:39.342Z,27.90
2018-07-17T07:19:08.496Z,28.10
2018-07-17T07:21:37.726Z,28.70
2018-07-17T07:24:06.913Z,29.00
2018-07-17T07:26:36.064Z,29.30
2018-07-17T07:29:05.360Z,29.80
2018-07-17T07:31:34.525Z,30.50
2018-07-17T07:34:03.684Z,31.10
2018-07-17T07:36:32.850Z,31.40
2018-07-17T07:39:02.098Z,32.20
2018-07-17T07:41:31.229Z,32.60
2018-07-17T07:44:00.396Z,33.00
2018-07-17T07:46:29.569Z,33.40
2018-07-17T07:48:58.733Z,33.80
2018-07-17T07:53:56.781Z,34.10
2018-07-17T07:56:25.984Z,35.20
2018-07-17T07:58:55.182Z,35.20
2018-07-17T08:01:24.407Z,35.30
2018-07-17T08:03:53.658Z,35.90
2018-07-17T08:06:22.793Z,36.10
2018-07-17T08:08:52.020Z,36.80
2018-07-17T08:11:21.291Z,36.70
2018-07-17T08:13:50.614Z,36.60
2018-07-17T08:16:20.490Z,35.40
2018-07-17T08:18:49.662Z,35.00
2018-07-17T08:21:18.846Z,35.40
2018-07-17T08:23:54.289Z,34.90
2018-07-17T08:26:23.462Z,36.40
2018-07-17T08:28:53.354Z,36.90
2018-07-17T08:31:22.564Z,37.20
2018-07-17T08:33:51.734Z,37.50
2018-07-17T08:36:20.929Z,37.30
2018-07-17T08:38:50.182Z,37.20
2018-07-17T08:41:19.339Z,37.20
2018-07-17T08:43:48.503Z,37.00
2018-07-17T08:46:17.716Z,36.20
2018-07-17T08:48:46.916Z,35.40
2018-07-17T08:51:16.038Z,35.40
2018-07-17T08:53:45.318Z,34.50
2018-07-17T08:56:14.446Z,34.10
2018-07-17T08:58:43.657Z,33.50
2018-07-17T09:01:12.881Z,32.70
2018-07-17T09:03:42.149Z,31.70
2018-07-17T09:06:11.414Z,31.30
2018-07-17T09:08:40.600Z,31.30
2018-07-17T09:11:09.757Z,31.30
2018-07-17T09:13:38.936Z,30.90
2018-07-17T09:16:08.126Z,30.00
2018-07-17T09:18:37.624Z,29.20
2018-07-17T09:21:07.662Z,28.70
2018-07-17T09:23:37.086Z,28.60
2018-07-17T09:26:06.430Z,28.40
2018-07-17T09:28:35.547Z,28.50
2018-07-17T09:31:04.742Z,28.60
2018-07-17T09:36:02.625Z,28.20
2018-07-17T09:38:31.740Z,28.30
2018-07-17T09:41:00.914Z,29.30
2018-07-17T09:43:30.038Z,29.20
2018-07-17T09:45:59.216Z,29.20
2018-07-17T09:48:28.330Z,28.90
2018-07-17T09:50:57.534Z,28.80
2018-07-17T09:53:26.725Z,28.40
2018-07-17T09:55:55.875Z,28.50
2018-07-17T09:58:25.092Z,28.70
2018-07-17T10:00:59.547Z,28.80
2018-07-17T10:03:28.694Z,29.10
2018-07-17T10:05:58.753Z,28.80
2018-07-17T10:08:28.084Z,28.70
2018-07-17T10:10:57.203Z,28.80
2018-07-17T10:13:26.451Z,29.00
2018-07-17T10:15:55.666Z,29.50
2018-07-17T10:18:24.892Z,29.60
2018-07-17T10:20:54.084Z,29.50
2018-07-17T10:23:23.329Z,29.10
2018-07-17T10:25:52.519Z,28.80
2018-07-17T10:28:21.809Z,28.60
2018-07-17T10:30:51.165Z,28.40
2018-07-17T10:33:20.285Z,28.40
2018-07-17T10:35:49.503Z,28.30
2018-07-17T10:38:18.647Z,28.30
2018-07-17T10:40:47.785Z,28.50
2018-07-17T10:43:16.981Z,29.00
2018-07-17T10:45:46.287Z,29.00
2018-07-17T10:48:15.448Z,28.80
2018-07-17T10:50:44.577Z,28.70
2018-07-17T10:53:13.795Z,28.40
2018-07-17T10:55:43.812Z,28.30
2018-07-17T10:58:13.813Z,28.30
2018-07-17T11:00:42.941Z,28.50
2018-07-17T11:05:40.795Z,28.80
2018-07-17T11:08:10.007Z,28.60
2018-07-17T11:10:39.176Z,28.50
2018-07-17T11:13:08.374Z,28.40
2018-07-17T11:15:37.592Z,28.70
2018-07-17T11:18:06.730Z,29.00
2018-07-17T11:20:35.958Z,29.00
2018-07-17T11:23:05.248Z,29.00
2018-07-17T11:25:34.422Z,29.00
2018-07-17T11:28:03.893Z,29.00
2018-07-17T11:30:33.083Z,28.80
2018-07-17T11:33:02.221Z,28.60
2018-07-17T11:35:31.345Z,28.50
2018-07-17T11:38:00.489Z,28.50
2018-07-17T11:40:29.621Z,28.50
2018-07-17T11:42:58.869Z,28.60
2018-07-17T11:45:28.014Z,28.70
2018-07-17T11:47:57.229Z,28.60
2018-07-17T11:50:26.374Z,28.50
2018-07-17T11:52:55.627Z,28.50
2018-07-17T11:55:25.212Z,28.60
2018-07-17T11:57:54.373Z,28.50
2018-07-17T12:00:23.553Z,28.40
2018-07-17T12:02:52.774Z,28.50
2018-07-17T12:05:22.007Z,28.60
2018-07-17T12:07:51.208Z,28.80
2018-07-17T12:10:20.355Z,29.00
2018-07-17T12:12:49.530Z,29.20
2018-07-17T12:15:18.685Z,29.30
2018-07-17T12:17:47.825Z,29.40
2018-07-17T12:20:17.056Z,29.60
2018-07-17T12:22:46.107Z,29.70
2018-07-17T12:25:15.268Z,29.60
2018-07-17T12:27:44.396Z,29.60
2018-07-17T12:30:13.536Z,29.80
2018-07-17T12:32:42.682Z,30.00
2018-07-17T12:35:11.885Z,30.30
2018-07-17T12:37:41.186Z,30.20
2018-07-17T12:40:10.428Z,30.20
2018-07-17T12:42:39.581Z,30.30
2018-07-17T12:45:08.761Z,30.40
2018-07-17T12:47:37.914Z,30.20
2018-07-17T12:50:07.242Z,30.30
2018-07-17T12:52:36.423Z,30.00
2018-07-17T12:55:05.869Z,29.90
2018-07-17T12:57:35.008Z,29.70
2018-07-17T13:00:04.729Z,29.40
2018-07-17T13:02:33.871Z,29.30
2018-07-17T13:05:03.048Z,29.20
2018-07-17T13:07:32.259Z,29.10
2018-07-17T13:10:01.406Z,29.20
2018-07-17T13:12:30.875Z,29.20
2018-07-17T13:15:00.212Z,29.20
2018-07-17T13:17:29.544Z,29.20
2018-07-17T13:19:59.032Z,29.20
2018-07-17T13:22:28.412Z,29.20
2018-07-17T13:24:57.821Z,29.20
2018-07-17T13:27:27.173Z,29.00
2018-07-17T13:29:56.478Z,28.90
2018-07-17T13:32:25.806Z,28.90
2018-07-17T13:34:55.207Z,28.90
2018-07-17T13:37:24.552Z,28.90
2018-07-17T13:39:54.029Z,29.10
2018-07-17T13:42:23.759Z,29.00
2018-07-17T13:44:53.318Z,28.90
2018-07-17T13:47:22.557Z,28.70
2018-07-17T13:49:51.862Z,28.20
2018-07-17T13:52:21.288Z,27.90
2018-07-17T13:54:50.666Z,27.60
2018-07-17T13:57:20.231Z,27.10
2018-07-17T13:59:49.675Z,27.10
2018-07-17T14:02:19.158Z,27.10
2018-07-17T14:04:48.403Z,27.00
2018-07-17T14:07:17.542Z,27.00
2018-07-17T14:09:46.680Z,27.10
2018-07-17T14:12:16.397Z,27.20
2018-07-17T14:14:45.532Z,27.40
2018-07-17T14:17:14.800Z,27.40
2018-07-17T14:19:44.513Z,27.50
2018-07-17T14:22:14.170Z,27.50
2018-07-17T14:24:43.418Z,27.30
2018-07-17T14:27:12.710Z,27.20
2018-07-17T14:29:41.914Z,27.10
2018-07-17T14:32:11.185Z,27.00
2018-07-17T14:34:40.422Z,26.90
2018-07-17T14:37:09.650Z,27.00
2018-07-17T14:39:38.796Z,27.10
2018-07-17T14:42:08.619Z,27.20
2018-07-17T14:44:37.775Z,27.20
2018-07-17T14:47:06.918Z,27.00
2018-07-17T14:49:36.111Z,27.00
2018-07-17T14:52:05.874Z,26.90
2018-07-17T14:54:35.014Z,26.90
2018-07-17T14:57:04.177Z,26.90
2018-07-17T14:59:33.342Z,26.80
2018-07-17T15:02:02.540Z,26.80
2018-07-17T15:04:32.287Z,26.90
2018-07-17T15:07:01.449Z,27.00
2018-07-17T15:09:30.658Z,27.20
2018-07-17T15:11:59.744Z,27.20
2018-07-17T15:14:28.878Z,27.20
2018-07-17T15:16:58.045Z,27.20
2018-07-17T15:19:27.168Z,27.20
2018-07-17T15:21:56.485Z,27.20
2018-07-17T15:24:25.688Z,27.20
2018-07-17T15:26:54.864Z,27.30
2018-07-17T15:29:24.045Z,27.40
2018-07-17T15:31:53.300Z,27.40
2018-07-17T15:34:22.478Z,27.40
2018-07-17T15:36:51.704Z,27.50
2018-07-17T15:39:20.878Z,27.30
2018-07-17T15:41:50.043Z,27.40
2018-07-17T15:44:19.275Z,27.50
2018-07-17T15:46:48.474Z,27.50
2018-07-17T15:49:17.645Z,27.50
2018-07-17T15:51:46.870Z,27.60
2018-07-17T15:54:16.067Z,27.70
2018-07-17T15:56:45.210Z,27.80
2018-07-17T15:59:14.357Z,27.80
2018-07-17T16:01:43.530Z,27.80
2018-07-17T16:04:12.696Z,27.90
2018-07-17T16:06:41.851Z,27.80
2018-07-17T16:09:11.137Z,27.80
2018-07-17T16:11:40.272Z,27.80
2018-07-17T16:14:09.558Z,27.80
2018-07-17T16:16:38.600Z,27.80
2018-07-17T16:19:07.829Z,27.80
2018-07-17T16:21:36.995Z,27.70
2018-07-17T16:24:06.230Z,27.70
2018-07-17T16:26:35.426Z,27.70
2018-07-17T16:29:04.824Z,27.60
2018-07-17T16:31:33.957Z,27.60
2018-07-17T16:34:03.157Z,27.60
2018-07-17T16:36:33.120Z,27.70
2018-07-17T16:39:02.267Z,27.70
2018-07-17T16:41:31.426Z,27.70
2018-07-17T16:44:00.543Z,27.80
2018-07-17T16:46:29.755Z,27.80
2018-07-17T16:48:58.841Z,27.70
2018-07-17T16:51:28.221Z,27.60
2018-07-17T16:53:57.971Z,27.60
2018-07-17T16:56:27.480Z,27.50
2018-07-17T16:58:56.696Z,27.50
2018-07-17T17:01:25.903Z,27.50
2018-07-17T17:03:55.089Z,27.60
2018-07-17T17:06:24.319Z,27.50
2018-07-17T17:08:53.551Z,27.50
2018-07-17T17:11:22.749Z,27.30
2018-07-17T17:13:51.984Z,27.20
2018-07-17T17:16:21.246Z,27.20
2018-07-17T17:18:50.450Z,27.20
2018-07-17T17:21:19.645Z,27.10
2018-07-17T17:23:48.918Z,27.10
2018-07-17T17:26:18.077Z,27.00
2018-07-17T17:28:47.296Z,27.00
2018-07-17T17:31:16.581Z,26.90
2018-07-17T17:33:45.806Z,26.90
2018-07-17T17:36:15.065Z,27.00
2018-07-17T17:38:44.315Z,27.00
2018-07-17T17:41:13.588Z,27.00
2018-07-17T17:43:42.802Z,27.00
2018-07-17T17:46:12.012Z,27.00
2018-07-17T17:48:41.126Z,27.00
2018-07-17T17:51:10.307Z,26.80
2018-07-17T17:53:39.433Z,26.80
2018-07-17T17:56:08.557Z,26.80
2018-07-17T17:58:37.715Z,26.70
2018-07-17T18:01:06.867Z,26.70
2018-07-17T18:03:35.994Z,26.70
2018-07-17T18:06:05.218Z,26.70
2018-07-17T18:08:34.431Z,26.70
2018-07-17T18:11:03.581Z,26.60
2018-07-17T18:13:32.785Z,26.60
2018-07-17T18:16:01.919Z,26.50
2018-07-17T18:18:31.132Z,26.50
2018-07-17T18:21:00.318Z,26.40
2018-07-17T18:23:29.602Z,26.40
2018-07-17T18:25:58.762Z,26.40
2018-07-17T18:28:27.991Z,26.40
2018-07-17T18:30:57.200Z,26.40
2018-07-17T18:33:26.313Z,26.40
2018-07-17T18:35:55.514Z,26.30
2018-07-17T18:38:24.695Z,26.30
2018-07-17T18:40:53.884Z,26.30
2018-07-17T18:43:23.143Z,26.30
2018-07-17T18:45:52.399Z,26.20
2018-07-17T18:48:21.508Z,26.20
2018-07-17T18:50:50.824Z,26.10
2018-07-17T18:53:20.010Z,26.00
2018-07-17T18:55:49.157Z,25.90
2018-07-17T18:58:18.379Z,25.80
2018-07-17T19:00:48.272Z,25.60
2018-07-17T19:03:17.436Z,25.60
2018-07-17T19:05:46.825Z,25.40
2018-07-17T19:08:15.915Z,25.30
2018-07-17T19:10:45.129Z,25.20
2018-07-17T19:13:14.347Z,25.10
2018-07-17T19:18:12.258Z,24.80
2018-07-17T19:20:41.511Z,24.60
2018-07-17T19:23:10.715Z,24.50
2018-07-17T19:25:39.904Z,24.60
2018-07-17T19:28:09.150Z,24.40
2018-07-17T19:30:38.343Z,24.30
2018-07-17T19:33:07.549Z,24.40
2018-07-17T19:35:36.803Z,24.40
2018-07-17T19:38:07.130Z,24.30
2018-07-17T19:40:36.435Z,24.20
2018-07-17T19:43:05.753Z,24.20
2018-07-17T19:45:35.182Z,24.30
2018-07-17T19:48:04.595Z,24.30
2018-07-17T19:50:33.875Z,24.20
2018-07-17T19:53:03.950Z,24.20
2018-07-17T19:55:33.194Z,24.20
2018-07-17T19:58:09.041Z,24.20
2018-07-17T20:00:38.259Z,24.10
2018-07-17T20:03:07.508Z,24.10
2018-07-17T20:05:36.854Z,24.00
2018-07-17T20:08:06.624Z,23.80
2018-07-17T20:10:35.763Z,23.70
2018-07-17T20:13:04.951Z,23.80
2018-07-17T20:15:34.102Z,23.80
2018-07-17T20:18:03.347Z,23.70
2018-07-17T20:20:32.853Z,23.60
2018-07-17T20:23:02.016Z,23.80
2018-07-17T20:25:31.258Z,23.80
2018-07-17T20:28:00.458Z,23.90
2018-07-17T20:30:29.596Z,23.90
2018-07-17T20:32:58.764Z,23.80
2018-07-17T20:35:28.011Z,23.70
2018-07-17T20:37:57.178Z,23.60
2018-07-17T20:40:26.419Z,23.70
2018-07-17T20:42:55.607Z,23.50
2018-07-17T20:45:24.878Z,23.50
2018-07-17T20:47:54.022Z,23.70
2018-07-17T20:50:23.159Z,23.70
2018-07-17T20:52:52.352Z,23.70
2018-07-17T20:55:21.473Z,23.60
2018-07-17T20:57:50.649Z,23.70
2018-07-17T21:00:19.847Z,23.50
2018-07-17T21:02:49.009Z,23.50
2018-07-17T21:05:22.477Z,23.40
2018-07-17T21:07:51.634Z,23.40
2018-07-17T21:10:20.797Z,23.30
2018-07-17T21:12:49.928Z,23.20
2018-07-17T21:15:19.157Z,23.20
2018-07-17T21:17:48.330Z,23.20
2018-07-17T21:20:17.469Z,23.10
2018-07-17T21:22:46.635Z,23.00
2018-07-17T21:25:15.806Z,23.00
2018-07-17T21:27:44.993Z,23.10
2018-07-17T21:30:14.170Z,23.30
2018-07-17T21:32:43.407Z,23.20
2018-07-17T21:35:12.559Z,23.20
2018-07-17T21:37:42.653Z,23.20
2018-07-17T21:40:11.813Z,23.40
2018-07-17T21:42:40.984Z,23.20
2018-07-17T21:45:10.113Z,23.20
2018-07-17T21:47:39.277Z,23.10
2018-07-17T21:50:08.463Z,23.10
2018-07-17T21:52:37.653Z,23.10
2018-07-17T21:55:06.794Z,22.90
2018-07-17T21:57:35.962Z,22.60
2018-07-17T22:00:07.804Z,22.50
2018-07-17T22:02:36.933Z,22.60
2018-07-17T22:05:06.096Z,22.50
2018-07-17T22:07:35.211Z,22.50
2018-07-17T22:10:04.559Z,22.50
2018-07-17T22:12:33.695Z,22.40
2018-07-17T22:15:02.962Z,22.30
2018-07-17T22:17:32.090Z,22.40
2018-07-17T22:20:01.227Z,22.40
2018-07-17T22:22:30.562Z,22.40
2018-07-17T22:24:59.760Z,22.50
2018-07-17T22:27:28.946Z,22.60
2018-07-17T22:29:58.092Z,22.50
2018-07-17T22:32:27.261Z,22.60
2018-07-17T22:34:56.474Z,22.70
2018-07-17T22:37:25.621Z,22.80
2018-07-17T22:39:54.804Z,22.90
2018-07-17T22:42:23.962Z,23.10
2018-07-17T22:44:53.141Z,23.00
2018-07-17T22:47:22.293Z,23.10
2018-07-17T22:49:51.491Z,23.20
2018-07-17T22:52:20.601Z,23.10
2018-07-17T22:54:49.766Z,22.90
2018-07-17T22:57:18.877Z,22.90
2018-07-17T22:59:48.005Z,22.80
2018-07-17T23:02:17.221Z,22.70
2018-07-17T23:04:46.281Z,22.80
2018-07-17T23:07:21.967Z,22.70
2018-07-17T23:09:51.224Z,22.70
2018-07-17T23:12:20.409Z,22.70
2018-07-17T23:14:49.614Z,22.60
2018-07-17T23:17:18.804Z,22.60
2018-07-17T23:19:47.923Z,22.60
2018-07-17T23:22:26.270Z,22.40
2018-07-17T23:24:55.486Z,22.60
2018-07-17T23:27:24.618Z,22.60
2018-07-17T23:29:53.808Z,22.60
2018-07-17T23:32:22.950Z,22.60
2018-07-17T23:34:52.216Z,22.60
2018-07-17T23:37:21.322Z,22.60
2018-07-17T23:42:19.191Z,22.30
2018-07-17T23:44:48.285Z,22.50
2018-07-17T23:49:46.324Z,22.50
2018-07-17T23:52:15.464Z,22.50
2018-07-17T23:54:44.760Z,22.50
2018-07-17T23:57:13.966Z,22.60
2018-07-17T23:59:43.110Z,22.70
